createdAt,value
2022-12-16T00:01:07.226Z,17.89
2022-12-16T00:03:36.936Z,17.90
2022-12-16T00:06:05.327Z,17.91
2022-12-16T00:08:37.155Z,17.91
2022-12-16T00:11:05.078Z,17.91
2022-12-16T00:13:33.768Z,17.92
2022-12-16T00:16:05.133Z,17.92
2022-12-16T00:18:33.127Z,17.92
2022-12-16T00:21:02.430Z,17.90
2022-12-16T00:23:30.791Z,17.88
2022-12-16T00:25:58.775Z,17.88
2022-12-16T00:28:26.734Z,17.87
2022-12-16T00:30:55.515Z,17.88
2022-12-16T00:33:24.667Z,17.86
2022-12-16T00:35:52.606Z,17.87
2022-12-16T00:38:23.084Z,17.87
2022-12-16T00:40:51.999Z,17.86
2022-12-16T00:43:20.685Z,17.85
2022-12-16T00:45:48.630Z,17.87
2022-12-16T00:48:16.609Z,17.88
2022-12-16T00:50:45.780Z,17.87
2022-12-16T00:53:13.660Z,17.86
2022-12-16T00:55:43.269Z,17.86
2022-12-16T00:58:11.144Z,17.86
2022-12-16T01:00:39.081Z,17.87
2022-12-16T01:03:06.998Z,17.89
2022-12-16T01:05:35.027Z,17.87
2022-12-16T01:08:02.902Z,17.88
2022-12-16T01:10:30.831Z,17.87
2022-12-16T01:13:00.078Z,17.87
2022-12-16T01:15:27.995Z,17.87
2022-12-16T01:17:55.863Z,17.90
2022-12-16T01:20:23.918Z,17.89
2022-12-16T01:22:51.783Z,17.88
2022-12-16T01:25:20.111Z,17.88
2022-12-16T01:27:48.016Z,17.90
2022-12-16T01:30:17.306Z,17.94
2022-12-16T01:32:45.459Z,17.98
2022-12-16T01:35:43.758Z,17.99
2022-12-16T01:38:01.384Z,17.98
2022-12-16T01:40:29.249Z,17.97
2022-12-16T01:42:57.115Z,17.93
2022-12-16T01:45:34.340Z,17.92
2022-12-16T01:48:04.565Z,17.92
2022-12-16T01:50:32.646Z,17.90
2022-12-16T01:53:01.442Z,17.88
2022-12-16T01:55:30.278Z,17.87
2022-12-16T01:58:00.077Z,17.88
2022-12-16T02:00:27.974Z,17.87
2022-12-16T02:02:57.808Z,17.86
2022-12-16T02:05:26.590Z,17.84
2022-12-16T02:08:02.166Z,17.83
2022-12-16T02:10:35.315Z,17.83
2022-12-16T02:13:05.210Z,17.81
2022-12-16T02:15:37.327Z,17.81
2022-12-16T02:18:08.563Z,17.82
2022-12-16T02:21:27.899Z,17.82
2022-12-16T02:24:22.532Z,17.82
2022-12-16T02:27:34.680Z,17.80
2022-12-16T02:30:31.214Z,17.81
2022-12-16T02:33:02.608Z,17.80
2022-12-16T02:35:33.745Z,17.80
2022-12-16T02:38:08.439Z,17.81
2022-12-16T02:40:38.446Z,17.83
2022-12-16T02:43:08.565Z,17.80
2022-12-16T02:45:37.928Z,17.79
2022-12-16T02:48:06.501Z,17.79
2022-12-16T02:50:36.255Z,17.78
2022-12-16T02:53:04.294Z,17.78
2022-12-16T02:55:35.808Z,17.77
2022-12-16T02:58:09.296Z,17.78
2022-12-16T03:00:42.569Z,17.77
2022-12-16T03:03:12.124Z,17.79
2022-12-16T03:05:41.513Z,17.78
2022-12-16T03:08:11.890Z,17.77
2022-12-16T03:10:41.383Z,17.77
2022-12-16T03:13:09.333Z,17.78
2022-12-16T03:15:37.246Z,17.80
2022-12-16T03:18:07.694Z,17.81
2022-12-16T03:20:36.593Z,17.83
2022-12-16T03:23:05.984Z,17.82
2022-12-16T03:25:34.018Z,17.83
2022-12-16T03:28:04.742Z,17.83
2022-12-16T03:30:34.629Z,17.82
2022-12-16T03:33:03.471Z,17.82
2022-12-16T03:35:34.473Z,17.82
2022-12-16T03:38:02.984Z,17.81
2022-12-16T03:40:30.903Z,17.79
2022-12-16T03:42:58.786Z,17.80
2022-12-16T03:45:27.328Z,17.79
2022-12-16T03:47:57.787Z,17.81
2022-12-16T03:50:26.839Z,17.80
2022-12-16T03:52:56.109Z,17.78
2022-12-16T03:55:24.020Z,17.80
2022-12-16T03:57:51.954Z,17.81
2022-12-16T04:00:20.114Z,17.80
2022-12-16T04:02:48.157Z,17.82
2022-12-16T04:05:16.376Z,17.82
2022-12-16T04:07:44.317Z,17.81
2022-12-16T04:10:13.583Z,17.81
2022-12-16T04:12:58.695Z,17.81
2022-12-16T04:15:44.292Z,17.81
2022-12-16T04:18:46.690Z,17.81
2022-12-16T04:21:31.829Z,17.81
2022-12-16T04:24:16.970Z,17.82
2022-12-16T04:27:03.620Z,17.82
2022-12-16T04:29:31.561Z,17.81
2022-12-16T04:31:59.448Z,17.82
2022-12-16T04:34:26.331Z,17.83
2022-12-16T04:37:11.610Z,17.81
2022-12-16T04:39:57.084Z,17.81
2022-12-16T04:42:43.853Z,17.82
2022-12-16T04:45:29.183Z,17.80
2022-12-16T04:48:14.657Z,17.81
2022-12-16T04:51:00.024Z,17.81
2022-12-16T04:53:45.541Z,17.80
2022-12-16T04:56:30.865Z,17.83
2022-12-16T04:59:32.075Z,17.86
2022-12-16T05:02:19.990Z,17.88
2022-12-16T05:05:05.446Z,17.88
2022-12-16T05:07:50.921Z,17.89
2022-12-16T05:10:36.490Z,17.91
2022-12-16T05:13:22.184Z,17.90
2022-12-16T05:16:08.999Z,17.88
2022-12-16T05:18:54.103Z,17.86
2022-12-16T05:21:39.402Z,17.86
2022-12-16T05:24:25.302Z,17.86
2022-12-16T05:27:10.324Z,17.86
2022-12-16T05:29:55.791Z,17.88
2022-12-16T05:32:42.510Z,17.92
2022-12-16T05:35:28.029Z,17.98
2022-12-16T05:38:13.398Z,18.04
2022-12-16T05:41:13.236Z,18.07
2022-12-16T05:43:58.421Z,18.11
2022-12-16T05:46:43.994Z,18.11
2022-12-16T05:49:42.011Z,18.08
2022-12-16T05:52:27.487Z,18.07
2022-12-16T05:55:13.020Z,18.06
2022-12-16T05:57:58.322Z,18.03
2022-12-16T06:00:43.697Z,18.02
2022-12-16T06:03:29.117Z,18.01
2022-12-16T06:06:16.203Z,18.01
2022-12-16T06:09:01.677Z,17.98
2022-12-16T06:11:47.023Z,17.92
2022-12-16T06:14:32.493Z,17.90
2022-12-16T06:17:18.117Z,17.88
2022-12-16T06:20:03.132Z,17.88
2022-12-16T06:22:49.705Z,17.85
2022-12-16T06:25:35.034Z,17.85
2022-12-16T06:28:20.376Z,17.85
2022-12-16T06:31:06.006Z,17.84
2022-12-16T06:33:54.802Z,17.84
2022-12-16T06:36:40.630Z,17.84
2022-12-16T06:39:29.492Z,17.87
2022-12-16T06:42:14.924Z,17.89
2022-12-16T06:45:00.238Z,17.91
2022-12-16T06:47:45.696Z,17.92
2022-12-16T06:50:30.302Z,17.89
2022-12-16T06:53:21.110Z,17.87
2022-12-16T06:56:08.213Z,17.87
2022-12-16T06:58:53.621Z,17.86
2022-12-16T07:01:53.692Z,17.84
2022-12-16T07:04:39.224Z,17.86
2022-12-16T07:07:24.684Z,17.90
2022-12-16T07:10:09.965Z,17.91
2022-12-16T07:12:56.642Z,17.92
2022-12-16T07:15:42.177Z,17.93
2022-12-16T07:18:27.559Z,17.95
2022-12-16T07:21:13.012Z,17.95
2022-12-16T07:23:58.574Z,17.98
2022-12-16T07:26:43.979Z,17.98
2022-12-16T07:29:30.537Z,17.97
2022-12-16T07:32:15.748Z,17.96
2022-12-16T07:35:01.190Z,18.01
2022-12-16T07:37:46.577Z,18.03
2022-12-16T07:40:31.865Z,18.03
2022-12-16T07:43:19.697Z,18.01
2022-12-16T07:46:06.710Z,18.00
2022-12-16T07:48:52.121Z,18.00
2022-12-16T07:51:37.991Z,17.99
2022-12-16T07:54:23.838Z,17.99
2022-12-16T07:57:09.308Z,17.95
2022-12-16T08:00:09.229Z,17.95
2022-12-16T08:03:04.722Z,17.94
2022-12-16T08:05:50.139Z,17.93
2022-12-16T08:08:36.396Z,17.91
2022-12-16T08:11:21.820Z,17.92
2022-12-16T08:14:07.121Z,17.96
2022-12-16T08:16:52.679Z,17.93
2022-12-16T08:19:39.608Z,17.94
2022-12-16T08:22:25.139Z,17.93
2022-12-16T08:25:10.516Z,17.92
2022-12-16T08:27:55.971Z,17.93
2022-12-16T08:30:41.576Z,17.94
2022-12-16T08:33:27.051Z,17.95
2022-12-16T08:36:16.130Z,17.98
2022-12-16T08:39:01.739Z,18.00
2022-12-16T08:41:47.135Z,18.00
2022-12-16T08:44:32.721Z,17.98
2022-12-16T08:47:18.413Z,17.97
2022-12-16T08:50:03.951Z,17.97
2022-12-16T08:52:50.780Z,17.96
2022-12-16T08:55:35.386Z,17.98
2022-12-16T08:58:20.871Z,17.98
2022-12-16T09:01:07.026Z,18.02
2022-12-16T09:03:49.473Z,18.03
2022-12-16T09:06:40.171Z,18.03
2022-12-16T09:09:27.702Z,18.04
2022-12-16T09:12:21.524Z,18.05
2022-12-16T09:15:06.841Z,18.04
2022-12-16T09:17:52.274Z,18.03
2022-12-16T09:20:41.275Z,18.05
2022-12-16T09:23:26.721Z,18.07
2022-12-16T09:26:27.066Z,18.07
2022-12-16T09:29:12.601Z,18.08
2022-12-16T09:31:58.027Z,18.06
2022-12-16T09:34:43.480Z,18.09
2022-12-16T09:37:29.322Z,18.11
2022-12-16T09:40:14.712Z,18.13
2022-12-16T09:43:06.037Z,18.13
2022-12-16T09:45:52.476Z,18.14
2022-12-16T09:48:41.123Z,18.15
2022-12-16T09:51:26.673Z,18.16
2022-12-16T09:54:14.585Z,18.14
2022-12-16T09:56:59.979Z,18.16
2022-12-16T09:59:48.170Z,18.16
2022-12-16T10:02:34.977Z,18.19
2022-12-16T10:05:20.134Z,18.19
2022-12-16T10:08:07.150Z,18.20
2022-12-16T10:10:54.523Z,18.20
2022-12-16T10:13:43.003Z,18.22
2022-12-16T10:16:31.980Z,18.23
2022-12-16T10:19:19.300Z,18.24
2022-12-16T10:22:08.414Z,18.25
2022-12-16T10:24:59.839Z,18.26
2022-12-16T10:27:48.194Z,18.25
2022-12-16T10:30:33.590Z,18.29
2022-12-16T10:33:20.578Z,18.31
2022-12-16T10:36:07.514Z,18.31
2022-12-16T10:38:55.418Z,18.30
2022-12-16T10:41:41.965Z,18.32
2022-12-16T10:44:34.559Z,18.35
2022-12-16T10:47:19.285Z,18.37
2022-12-16T10:50:06.088Z,18.36
2022-12-16T10:52:51.547Z,18.39
2022-12-16T10:55:43.677Z,18.38
2022-12-16T10:58:35.753Z,18.38
2022-12-16T11:01:21.244Z,18.39
2022-12-16T11:04:06.718Z,18.40
2022-12-16T11:06:57.262Z,18.42
2022-12-16T11:09:44.437Z,18.44
2022-12-16T11:12:42.985Z,18.44
2022-12-16T11:15:44.510Z,18.43
2022-12-16T11:18:31.325Z,18.43
2022-12-16T11:21:28.987Z,18.45
2022-12-16T11:24:25.432Z,18.45
2022-12-16T11:27:15.042Z,18.45
2022-12-16T11:30:25.195Z,18.44
2022-12-16T11:33:11.462Z,18.45
2022-12-16T11:36:12.959Z,18.44
2022-12-16T11:38:59.075Z,18.44
2022-12-16T11:41:47.430Z,18.44
2022-12-16T11:44:36.893Z,18.43
2022-12-16T11:47:21.098Z,18.41
2022-12-16T11:50:20.978Z,18.40
2022-12-16T11:53:13.699Z,18.41
2022-12-16T11:56:11.141Z,18.41
2022-12-16T11:59:02.634Z,18.43
2022-12-16T12:01:50.656Z,18.44
2022-12-16T12:04:36.499Z,18.45
2022-12-16T12:07:32.190Z,18.48
2022-12-16T12:10:17.003Z,18.50
2022-12-16T12:13:05.242Z,18.50
2022-12-16T12:15:53.939Z,18.50
2022-12-16T12:18:56.267Z,18.52
2022-12-16T12:21:43.768Z,18.53
2022-12-16T12:24:36.634Z,18.54
2022-12-16T12:27:25.184Z,18.57
2022-12-16T12:30:17.649Z,18.64
2022-12-16T12:33:07.795Z,18.65
2022-12-16T12:36:01.570Z,18.62
2022-12-16T12:38:48.656Z,18.62
2022-12-16T12:41:36.348Z,18.62
2022-12-16T12:44:24.784Z,18.62
2022-12-16T12:47:12.056Z,18.63
2022-12-16T12:50:02.400Z,18.65
2022-12-16T12:53:02.884Z,18.70
2022-12-16T12:55:51.832Z,18.71
2022-12-16T12:58:38.184Z,18.70
2022-12-16T13:01:23.802Z,18.67
2022-12-16T13:04:09.510Z,18.66
2022-12-16T13:06:59.243Z,18.66
2022-12-16T13:09:47.160Z,18.65
2022-12-16T13:12:43.727Z,18.65
2022-12-16T13:15:30.236Z,18.64
2022-12-16T13:18:42.158Z,18.61
2022-12-16T13:22:02.909Z,18.60
2022-12-16T13:25:03.853Z,18.63
2022-12-16T13:28:03.453Z,18.60
2022-12-16T13:30:48.505Z,18.58
2022-12-16T13:33:42.141Z,18.54
2022-12-16T13:36:27.701Z,18.50
2022-12-16T13:39:15.142Z,18.46
2022-12-16T13:42:08.604Z,18.44
2022-12-16T13:45:15.991Z,18.45
2022-12-16T13:48:17.708Z,18.46
2022-12-16T13:51:03.555Z,18.47
2022-12-16T13:53:50.031Z,18.48
2022-12-16T13:56:38.529Z,18.47
2022-12-16T13:59:25.440Z,18.47
2022-12-16T14:02:12.031Z,18.47
2022-12-16T14:04:58.832Z,18.46
2022-12-16T14:07:53.115Z,18.46
2022-12-16T14:10:42.140Z,18.46
2022-12-16T14:13:30.994Z,18.47
2022-12-16T14:16:19.455Z,18.48
2022-12-16T14:19:11.718Z,18.47
2022-12-16T14:21:58.673Z,18.47
2022-12-16T14:24:45.586Z,18.47
2022-12-16T14:27:32.842Z,18.45
2022-12-16T14:30:20.104Z,18.45
2022-12-16T14:33:05.430Z,18.44
2022-12-16T14:35:50.809Z,18.44
2022-12-16T14:38:41.728Z,18.43
2022-12-16T14:41:32.620Z,18.43
2022-12-16T14:44:18.148Z,18.43
2022-12-16T14:47:09.302Z,18.43
2022-12-16T14:49:59.905Z,18.42
2022-12-16T14:52:45.838Z,18.40
2022-12-16T14:55:33.410Z,18.40
2022-12-16T14:58:27.413Z,18.40
2022-12-16T15:01:16.023Z,18.40
2022-12-16T15:04:04.245Z,18.37
2022-12-16T15:06:51.143Z,18.38
2022-12-16T15:09:39.972Z,18.37
2022-12-16T15:12:26.020Z,18.36
2022-12-16T15:15:11.955Z,18.35
2022-12-16T15:18:03.421Z,18.35
2022-12-16T15:20:50.482Z,18.33
2022-12-16T15:23:39.911Z,18.31
2022-12-16T15:26:25.392Z,18.31
2022-12-16T15:29:10.489Z,18.31
2022-12-16T15:32:02.676Z,18.31
2022-12-16T15:34:50.030Z,18.30
2022-12-16T15:37:41.610Z,18.28
2022-12-16T15:40:44.247Z,18.26
2022-12-16T15:43:43.940Z,18.25
2022-12-16T15:46:39.506Z,18.25
2022-12-16T15:49:24.868Z,18.25
2022-12-16T15:52:24.968Z,18.24
2022-12-16T15:55:12.309Z,18.25
2022-12-16T15:57:57.593Z,18.24
2022-12-16T16:00:43.957Z,18.23
2022-12-16T16:03:37.771Z,18.24
2022-12-16T16:06:23.545Z,18.24
2022-12-16T16:09:09.746Z,18.25
2022-12-16T16:11:56.526Z,18.25
2022-12-16T16:14:53.144Z,18.24
2022-12-16T16:17:41.747Z,18.24
2022-12-16T16:20:28.822Z,18.24
2022-12-16T16:23:14.094Z,18.26
2022-12-16T16:26:03.821Z,18.26
2022-12-16T16:28:51.062Z,18.25
2022-12-16T16:31:36.499Z,18.26
2022-12-16T16:34:21.950Z,18.26
2022-12-16T16:37:07.898Z,18.26
2022-12-16T16:39:53.436Z,18.24
2022-12-16T16:42:41.771Z,18.22
2022-12-16T16:45:29.357Z,18.24
2022-12-16T16:48:20.467Z,18.23
2022-12-16T16:51:05.917Z,18.23
2022-12-16T16:53:51.420Z,18.22
2022-12-16T16:56:36.639Z,18.24
2022-12-16T16:59:22.987Z,18.24
2022-12-16T17:02:09.794Z,18.24
2022-12-16T17:04:55.661Z,18.23
2022-12-16T17:07:40.932Z,18.23
2022-12-16T17:10:26.769Z,18.23
2022-12-16T17:13:12.201Z,18.24
2022-12-16T17:15:57.809Z,18.23
2022-12-16T17:18:48.980Z,18.23
2022-12-16T17:21:37.547Z,18.22
2022-12-16T17:24:23.141Z,18.24
2022-12-16T17:27:08.593Z,18.24
2022-12-16T17:29:54.097Z,18.24
2022-12-16T17:32:39.314Z,18.23
2022-12-16T17:35:31.648Z,18.22
2022-12-16T17:38:17.217Z,18.21
2022-12-16T17:41:04.631Z,18.20
2022-12-16T17:43:50.056Z,18.20
2022-12-16T17:46:35.487Z,18.20
2022-12-16T17:49:20.932Z,18.20
2022-12-16T17:52:07.570Z,18.22
2022-12-16T17:54:52.796Z,18.22
2022-12-16T17:57:38.382Z,18.20
2022-12-16T18:00:24.583Z,18.20
2022-12-16T18:03:10.065Z,18.19
2022-12-16T18:05:55.639Z,18.21
2022-12-16T18:08:42.256Z,18.20
2022-12-16T18:11:27.382Z,18.19
2022-12-16T18:14:12.795Z,18.19
2022-12-16T18:16:58.161Z,18.18
2022-12-16T18:19:43.911Z,18.19
2022-12-16T18:22:29.319Z,18.19
2022-12-16T18:25:12.464Z,18.19
2022-12-16T18:27:57.953Z,18.16
2022-12-16T18:30:43.364Z,18.17
2022-12-16T18:33:29.814Z,18.15
2022-12-16T18:36:26.504Z,18.16
2022-12-16T18:39:11.276Z,18.16
2022-12-16T18:42:01.277Z,18.15
2022-12-16T18:44:46.861Z,18.13
2022-12-16T18:47:32.459Z,18.13
2022-12-16T18:50:21.142Z,18.13
2022-12-16T18:53:10.946Z,18.14
2022-12-16T18:55:56.184Z,18.13
2022-12-16T18:58:51.319Z,18.13
2022-12-16T19:01:37.311Z,18.14
2022-12-16T19:04:22.661Z,18.14
2022-12-16T19:07:07.703Z,18.14
2022-12-16T19:09:53.223Z,18.13
2022-12-16T19:12:38.695Z,18.11
2022-12-16T19:15:26.289Z,18.10
2022-12-16T19:18:11.404Z,18.12
2022-12-16T19:20:56.962Z,18.12
2022-12-16T19:23:42.311Z,18.10
2022-12-16T19:26:27.501Z,18.07
2022-12-16T19:29:13.019Z,18.07
2022-12-16T19:31:59.918Z,18.07
2022-12-16T19:34:45.345Z,18.06
2022-12-16T19:37:30.808Z,18.04
2022-12-16T19:40:16.224Z,18.06
2022-12-16T19:43:01.528Z,18.05
2022-12-16T19:45:46.630Z,18.07
2022-12-16T19:48:33.214Z,18.07
2022-12-16T19:51:19.840Z,18.05
2022-12-16T19:54:05.314Z,18.03
2022-12-16T19:56:50.872Z,18.01
2022-12-16T19:59:51.774Z,18.03
2022-12-16T20:02:37.324Z,18.03
2022-12-16T20:05:25.039Z,17.99
2022-12-16T20:08:10.352Z,17.99
2022-12-16T20:10:56.242Z,18.00
2022-12-16T20:13:41.545Z,17.99
2022-12-16T20:16:28.348Z,17.98
2022-12-16T20:19:13.888Z,17.96
2022-12-16T20:25:06.056Z,17.95
2022-12-16T20:27:51.451Z,17.96
2022-12-16T20:30:37.156Z,17.95
2022-12-16T20:33:22.615Z,17.94
2022-12-16T20:36:14.636Z,17.92
2022-12-16T20:39:01.145Z,17.91
2022-12-16T20:41:45.728Z,17.89
2022-12-16T20:44:31.170Z,17.91
2022-12-16T20:47:18.918Z,17.91
2022-12-16T20:50:04.335Z,17.92
2022-12-16T20:52:49.632Z,17.93
2022-12-16T20:55:36.229Z,17.91
2022-12-16T20:58:21.282Z,17.89
2022-12-16T21:01:09.862Z,17.90
2022-12-16T21:03:54.995Z,17.89
2022-12-16T21:06:41.836Z,17.89
2022-12-16T21:09:27.196Z,17.88
2022-12-16T21:12:14.228Z,17.90
2022-12-16T21:14:42.294Z,17.96
2022-12-16T21:14:59.814Z,17.89
2022-12-16T21:17:45.240Z,17.91
2022-12-16T21:20:30.662Z,17.89
2022-12-16T21:23:18.031Z,17.85
2022-12-16T21:26:03.381Z,17.82
2022-12-16T21:28:50.453Z,17.80
2022-12-16T21:31:35.992Z,17.79
2022-12-16T21:34:21.288Z,17.79
2022-12-16T21:37:06.689Z,17.78
2022-12-16T21:39:52.047Z,17.77
2022-12-16T21:42:41.061Z,17.76
2022-12-16T21:45:30.772Z,17.77
2022-12-16T21:48:15.953Z,17.76
2022-12-16T21:51:01.288Z,17.75
2022-12-16T21:53:47.014Z,17.72
2022-12-16T21:56:32.476Z,17.71
2022-12-16T21:59:17.840Z,17.69
2022-12-16T22:02:05.011Z,17.68
2022-12-16T22:04:50.387Z,17.67
2022-12-16T22:07:35.814Z,17.66
2022-12-16T22:10:21.300Z,17.65
2022-12-16T22:13:06.878Z,17.66
2022-12-16T22:15:52.303Z,17.64
2022-12-16T22:18:39.251Z,17.66
2022-12-16T22:21:25.215Z,17.64
2022-12-16T22:24:10.605Z,17.63
2022-12-16T22:26:56.513Z,17.61
2022-12-16T22:29:42.053Z,17.59
2022-12-16T22:32:32.822Z,17.58
2022-12-16T22:35:19.844Z,17.58
2022-12-16T22:38:04.466Z,17.60
2022-12-16T22:40:50.009Z,17.58
2022-12-16T22:43:35.674Z,17.56
2022-12-16T22:46:21.697Z,17.55
2022-12-16T22:49:06.883Z,17.57
2022-12-16T22:51:53.973Z,17.56
2022-12-16T22:54:39.198Z,17.55
2022-12-16T22:57:24.664Z,17.55
2022-12-16T23:00:10.097Z,17.56
2022-12-16T23:02:55.535Z,17.55
2022-12-16T23:05:42.049Z,17.55
2022-12-16T23:08:28.626Z,17.54
2022-12-16T23:11:14.075Z,17.54
2022-12-16T23:13:59.189Z,17.53
2022-12-16T23:16:44.506Z,17.52
2022-12-16T23:19:30.057Z,17.51
2022-12-16T23:22:15.549Z,17.49
2022-12-16T23:25:02.272Z,17.49
2022-12-16T23:27:58.932Z,17.49
2022-12-16T23:30:44.420Z,17.48
2022-12-16T23:33:29.838Z,17.47
2022-12-16T23:36:15.239Z,17.46
2022-12-16T23:39:00.473Z,17.46
2022-12-16T23:41:47.325Z,17.46
2022-12-16T23:44:32.583Z,17.42
2022-12-16T23:47:18.001Z,17.45
2022-12-16T23:50:03.046Z,17.45
2022-12-16T23:52:48.513Z,17.44
2022-12-16T23:55:34.278Z,17.44
2022-12-16T23:58:22.911Z,17.46
